sensor_id;sensor_type;location;lat;lon;timestamp;pressure;altitude;pressure_sealevel;temperature;humidity
63097;BME280;49185;42.320;23.198;2023-08-07T00:02:06;94310.03;;;14.12;100.00
63097;BME280;49185;42.320;23.198;2023-08-07T00:04:32;94311.44;;;14.04;100.00
63097;BME280;49185;42.320;23.198;2023-08-07T00:06:57;94311.22;;;14.01;100.00
63097;BME280;49185;42.320;23.198;2023-08-07T00:09:23;94320.59;;;13.93;100.00
63097;BME280;49185;42.320;23.198;2023-08-07T00:11:48;94323.03;;;13.90;100.00
63097;BME280;49185;42.320;23.198;2023-08-07T00:14:14;94329.25;;;13.85;100.00
63097;BME280;49185;42.320;23.198;2023-08-07T00:16:41;94328.16;;;13.86;100.00
63097;BME280;49185;42.320;23.198;2023-08-07T00:19:06;94327.09;;;13.87;100.00
63097;BME280;49185;42.320;23.198;2023-08-07T00:21:32;94317.47;;;13.86;100.00
63097;BME280;49185;42.320;23.198;2023-08-07T00:23:57;94312.44;;;13.79;100.00
63097;BME280;49185;42.320;23.198;2023-08-07T00:26:23;94323.41;;;13.78;100.00
63097;BME280;49185;42.320;23.198;2023-08-07T00:28:48;94319.69;;;13.74;100.00
63097;BME280;49185;42.320;23.198;2023-08-07T00:31:13;94312.78;;;13.67;100.00
63097;BME280;49185;42.320;23.198;2023-08-07T00:33:39;94317.91;;;13.59;100.00
63097;BME280;49185;42.320;23.198;2023-08-07T00:36:04;94325.72;;;13.50;100.00
63097;BME280;49185;42.320;23.198;2023-08-07T00:38:30;94313.47;;;13.44;100.00
63097;BME280;49185;42.320;23.198;2023-08-07T00:40:55;94324.97;;;13.44;100.00
63097;BME280;49185;42.320;23.198;2023-08-07T00:43:21;94314.28;;;13.44;100.00
63097;BME280;49185;42.320;23.198;2023-08-07T00:45:47;94312.66;;;13.43;100.00
63097;BME280;49185;42.320;23.198;2023-08-07T00:48:14;94307.59;;;13.42;100.00
63097;BME280;49185;42.320;23.198;2023-08-07T00:50:42;94318.56;;;13.40;100.00
63097;BME280;49185;42.320;23.198;2023-08-07T00:53:08;94328.47;;;13.29;100.00
63097;BME280;49185;42.320;23.198;2023-08-07T00:55:34;94332.22;;;13.28;100.00
63097;BME280;49185;42.320;23.198;2023-08-07T00:58:00;94333.56;;;13.26;100.00
63097;BME280;49185;42.320;23.198;2023-08-07T01:00:28;94333.81;;;13.29;100.00
63097;BME280;49185;42.320;23.198;2023-08-07T01:02:56;94329.81;;;13.27;100.00
63097;BME280;49185;42.320;23.198;2023-08-07T01:05:24;94334.66;;;13.25;100.00
63097;BME280;49185;42.320;23.198;2023-08-07T01:07:49;94336.53;;;13.24;100.00
63097;BME280;49185;42.320;23.198;2023-08-07T01:10:15;94327.44;;;13.20;100.00
63097;BME280;49185;42.320;23.198;2023-08-07T01:12:48;94334.97;;;13.13;100.00
63097;BME280;49185;42.320;23.198;2023-08-07T01:15:23;94347.00;;;13.10;100.00
63097;BME280;49185;42.320;23.198;2023-08-07T01:17:52;94352.63;;;13.04;100.00
63097;BME280;49185;42.320;23.198;2023-08-07T01:20:18;94351.03;;;12.98;100.00
63097;BME280;49185;42.320;23.198;2023-08-07T01:22:43;94342.25;;;12.92;100.00
63097;BME280;49185;42.320;23.198;2023-08-07T01:25:09;94345.75;;;12.93;100.00
63097;BME280;49185;42.320;23.198;2023-08-07T01:27:56;94347.06;;;12.90;100.00
63097;BME280;49185;42.320;23.198;2023-08-07T01:30:31;94352.13;;;12.91;100.00
63097;BME280;49185;42.320;23.198;2023-08-07T01:33:08;94353.75;;;12.93;100.00
63097;BME280;49185;42.320;23.198;2023-08-07T01:35:44;94358.53;;;12.90;100.00
63097;BME280;49185;42.320;23.198;2023-08-07T01:38:12;94362.84;;;12.86;100.00
63097;BME280;49185;42.320;23.198;2023-08-07T01:40:39;94363.63;;;12.87;100.00
63097;BME280;49185;42.320;23.198;2023-08-07T01:43:05;94360.19;;;12.81;100.00
63097;BME280;49185;42.320;23.198;2023-08-07T01:45:31;94365.25;;;12.83;100.00
63097;BME280;49185;42.320;23.198;2023-08-07T01:47:56;94361.53;;;12.79;100.00
63097;BME280;49185;42.320;23.198;2023-08-07T01:50:23;94363.69;;;12.77;100.00
63097;BME280;49185;42.320;23.198;2023-08-07T01:52:48;94363.69;;;12.71;100.00
63097;BME280;49185;42.320;23.198;2023-08-07T01:55:15;94360.44;;;12.75;100.00
63097;BME280;49185;42.320;23.198;2023-08-07T01:57:41;94368.19;;;12.76;100.00
63097;BME280;49185;42.320;23.198;2023-08-07T02:00:07;94360.19;;;12.71;100.00
63097;BME280;49185;42.320;23.198;2023-08-07T02:02:33;94380.75;;;12.70;100.00
63097;BME280;49185;42.320;23.198;2023-08-07T02:04:58;94373.28;;;12.72;100.00
63097;BME280;49185;42.320;23.198;2023-08-07T02:07:24;94361.81;;;12.67;100.00
63097;BME280;49185;42.320;23.198;2023-08-07T02:09:49;94373.00;;;12.74;100.00
63097;BME280;49185;42.320;23.198;2023-08-07T02:12:15;94365.25;;;12.78;100.00
63097;BME280;49185;42.320;23.198;2023-08-07T02:14:41;94373.78;;;12.85;100.00
63097;BME280;49185;42.320;23.198;2023-08-07T02:17:06;94374.03;;;12.94;100.00
63097;BME280;49185;42.320;23.198;2023-08-07T02:19:31;94381.22;;;12.98;100.00
63097;BME280;49185;42.320;23.198;2023-08-07T02:21:57;94369.47;;;12.99;100.00
63097;BME280;49185;42.320;23.198;2023-08-07T02:24:22;94377.97;;;13.06;100.00
63097;BME280;49185;42.320;23.198;2023-08-07T02:26:48;94376.91;;;13.13;100.00
63097;BME280;49185;42.320;23.198;2023-08-07T02:29:13;94384.06;;;13.22;100.00
63097;BME280;49185;42.320;23.198;2023-08-07T02:31:39;94383.28;;;13.32;100.00
63097;BME280;49185;42.320;23.198;2023-08-07T02:34:04;94379.25;;;13.35;100.00
63097;BME280;49185;42.320;23.198;2023-08-07T02:36:30;94380.06;;;13.35;100.00
63097;BME280;49185;42.320;23.198;2023-08-07T02:38:55;94373.09;;;13.39;100.00
63097;BME280;49185;42.320;23.198;2023-08-07T02:41:21;94376.53;;;13.40;100.00
63097;BME280;49185;42.320;23.198;2023-08-07T02:43:46;94372.81;;;13.41;100.00
63097;BME280;49185;42.320;23.198;2023-08-07T02:46:11;94376.31;;;13.31;100.00
63097;BME280;49185;42.320;23.198;2023-08-07T02:48:37;94376.56;;;13.29;100.00
63097;BME280;49185;42.320;23.198;2023-08-07T02:51:02;94379.53;;;13.28;100.00
63097;BME280;49185;42.320;23.198;2023-08-07T02:53:28;94389.66;;;13.26;100.00
63097;BME280;49185;42.320;23.198;2023-08-07T02:55:53;94391.53;;;13.25;100.00
63097;BME280;49185;42.320;23.198;2023-08-07T02:58:19;94407.56;;;13.30;100.00
63097;BME280;49185;42.320;23.198;2023-08-07T03:00:44;94404.63;;;13.37;100.00
63097;BME280;49185;42.320;23.198;2023-08-07T03:03:09;94405.66;;;13.41;100.00
63097;BME280;49185;42.320;23.198;2023-08-07T03:05:35;94416.84;;;13.48;100.00
63097;BME280;49185;42.320;23.198;2023-08-07T03:08:00;94418.47;;;13.50;100.00
63097;BME280;49185;42.320;23.198;2023-08-07T03:10:26;94416.81;;;13.59;100.00
63097;BME280;49185;42.320;23.198;2023-08-07T03:12:51;94424.03;;;13.63;100.00
63097;BME280;49185;42.320;23.198;2023-08-07T03:15:17;94423.97;;;13.68;100.00
63097;BME280;49185;42.320;23.198;2023-08-07T03:17:43;94426.94;;;13.67;100.00
63097;BME280;49185;42.320;23.198;2023-08-07T03:20:08;94428.56;;;13.63;100.00
63097;BME280;49185;42.320;23.198;2023-08-07T03:22:34;94431.00;;;13.54;100.00
63097;BME280;49185;42.320;23.198;2023-08-07T03:24:59;94438.50;;;13.52;100.00
63097;BME280;49185;42.320;23.198;2023-08-07T03:27:25;94436.09;;;13.51;100.00
63097;BME280;49185;42.320;23.198;2023-08-07T03:29:50;94432.91;;;13.48;100.00
63097;BME280;49185;42.320;23.198;2023-08-07T03:32:17;94437.44;;;13.48;100.00
63097;BME280;49185;42.320;23.198;2023-08-07T03:34:42;94441.16;;;13.57;100.00
63097;BME280;49185;42.320;23.198;2023-08-07T03:37:08;94451.03;;;13.62;100.00
63097;BME280;49185;42.320;23.198;2023-08-07T03:39:33;94445.44;;;13.53;100.00
63097;BME280;49185;42.320;23.198;2023-08-07T03:41:59;94438.81;;;13.40;100.00
63097;BME280;49185;42.320;23.198;2023-08-07T03:44:25;94446.03;;;13.35;100.00
63097;BME280;49185;42.320;23.198;2023-08-07T03:46:50;94443.38;;;13.35;100.00
63097;BME280;49185;42.320;23.198;2023-08-07T03:49:15;94442.81;;;13.27;100.00
63097;BME280;49185;42.320;23.198;2023-08-07T03:51:41;94453.50;;;13.27;100.00
63097;BME280;49185;42.320;23.198;2023-08-07T03:54:06;94444.44;;;13.23;100.00
63097;BME280;49185;42.320;23.198;2023-08-07T03:56:32;94452.72;;;13.22;100.00
63097;BME280;49185;42.320;23.198;2023-08-07T03:58:57;94450.31;;;13.20;100.00
63097;BME280;49185;42.320;23.198;2023-08-07T04:01:22;94455.41;;;13.17;100.00
63097;BME280;49185;42.320;23.198;2023-08-07T04:03:48;94447.41;;;13.11;100.00
63097;BME280;49185;42.320;23.198;2023-08-07T04:06:13;94448.50;;;13.10;100.00
63097;BME280;49185;42.320;23.198;2023-08-07T04:08:39;94454.38;;;13.13;100.00
63097;BME280;49185;42.320;23.198;2023-08-07T04:11:04;94449.03;;;13.13;100.00
63097;BME280;49185;42.320;23.198;2023-08-07T04:13:31;94461.53;;;13.22;100.00
63097;BME280;49185;42.320;23.198;2023-08-07T04:15:57;94458.59;;;13.24;100.00
63097;BME280;49185;42.320;23.198;2023-08-07T04:18:23;94467.94;;;13.37;100.00
63097;BME280;49185;42.320;23.198;2023-08-07T04:20:53;94464.44;;;13.52;100.00
63097;BME280;49185;42.320;23.198;2023-08-07T04:23:18;94468.88;;;13.77;100.00
63097;BME280;49185;42.320;23.198;2023-08-07T04:25:45;94471.41;;;14.02;100.00
63097;BME280;49185;42.320;23.198;2023-08-07T04:28:10;94470.22;;;14.24;100.00
63097;BME280;49185;42.320;23.198;2023-08-07T04:30:35;94465.53;;;14.45;100.00
63097;BME280;49185;42.320;23.198;2023-08-07T04:33:01;94471.84;;;14.65;100.00
63097;BME280;49185;42.320;23.198;2023-08-07T04:35:26;94474.28;;;14.90;100.00
63097;BME280;49185;42.320;23.198;2023-08-07T04:37:52;94473.47;;;15.19;100.00
63097;BME280;49185;42.320;23.198;2023-08-07T04:40:17;94478.72;;;15.29;100.00
63097;BME280;49185;42.320;23.198;2023-08-07T04:42:42;94476.63;;;15.50;100.00
63097;BME280;49185;42.320;23.198;2023-08-07T04:45:08;94484.63;;;15.80;99.00
63097;BME280;49185;42.320;23.198;2023-08-07T04:47:34;94484.63;;;15.80;97.19
63097;BME280;49185;42.320;23.198;2023-08-07T04:49:59;94484.53;;;16.09;99.21
63097;BME280;49185;42.320;23.198;2023-08-07T04:52:24;94483.44;;;16.67;95.75
63097;BME280;49185;42.320;23.198;2023-08-07T05:22:33;94483.25;;;20.80;74.28
63097;BME280;49185;42.320;23.198;2023-08-07T05:24:59;94488.03;;;21.74;69.80
63097;BME280;49185;42.320;23.198;2023-08-07T05:27:24;94489.75;;;22.39;68.22
63097;BME280;49185;42.320;23.198;2023-08-07T05:29:51;94495.59;;;22.70;67.65
63097;BME280;49185;42.320;23.198;2023-08-07T05:32:16;94491.88;;;22.75;68.83
63097;BME280;49185;42.320;23.198;2023-08-07T05:34:41;94490.41;;;22.99;66.72
63097;BME280;49185;42.320;23.198;2023-08-07T05:37:07;94492.06;;;22.91;66.15
63097;BME280;49185;42.320;23.198;2023-08-07T05:39:34;94496.50;;;23.17;68.25
63097;BME280;49185;42.320;23.198;2023-08-07T05:41:59;94494.19;;;23.98;65.43
63097;BME280;49185;42.320;23.198;2023-08-07T05:44:25;94493.47;;;23.88;65.57
63097;BME280;49185;42.320;23.198;2023-08-07T05:46:50;94487.47;;;23.83;65.39
63097;BME280;49185;42.320;23.198;2023-08-07T05:49:16;94490.19;;;24.20;62.42
63097;BME280;49185;42.320;23.198;2023-08-07T05:51:41;94480.94;;;23.38;66.32
63097;BME280;49185;42.320;23.198;2023-08-07T05:54:07;94475.38;;;24.17;62.25
63097;BME280;49185;42.320;23.198;2023-08-07T05:56:32;94471.72;;;24.38;62.35
63097;BME280;49185;42.320;23.198;2023-08-07T05:58:57;94477.94;;;24.51;56.12
63097;BME280;49185;42.320;23.198;2023-08-07T06:01:23;94480.72;;;25.35;52.85
63097;BME280;49185;42.320;23.198;2023-08-07T06:03:48;94474.88;;;25.65;51.28
63097;BME280;49185;42.320;23.198;2023-08-07T06:06:14;94474.34;;;26.59;47.01
63097;BME280;49185;42.320;23.198;2023-08-07T06:08:39;94466.09;;;26.04;48.99
63097;BME280;49185;42.320;23.198;2023-08-07T06:11:04;94472.25;;;26.01;48.66
63097;BME280;49185;42.320;23.198;2023-08-07T06:13:30;94468.81;;;25.88;50.82
63097;BME280;49185;42.320;23.198;2023-08-07T06:16:14;94476.56;;;25.86;47.71
63097;BME280;49185;42.320;23.198;2023-08-07T06:18:39;94471.97;;;25.74;49.46
63097;BME280;49185;42.320;23.198;2023-08-07T06:21:05;94472.59;;;25.99;48.59
63097;BME280;49185;42.320;23.198;2023-08-07T06:23:30;94464.78;;;25.82;47.85
63097;BME280;49185;42.320;23.198;2023-08-07T06:25:55;94472.75;;;25.90;50.37
63097;BME280;49185;42.320;23.198;2023-08-07T06:28:24;94466.97;;;25.76;46.80
63097;BME280;49185;42.320;23.198;2023-08-07T06:30:49;94468.53;;;25.93;48.29
63097;BME280;49185;42.320;23.198;2023-08-07T06:33:15;94473.63;;;26.26;45.48
63097;BME280;49185;42.320;23.198;2023-08-07T06:35:40;94470.91;;;25.18;48.56
63097;BME280;49185;42.320;23.198;2023-08-07T06:38:06;94469.25;;;25.90;48.13
63097;BME280;49185;42.320;23.198;2023-08-07T06:40:31;94475.97;;;26.44;46.86
63097;BME280;49185;42.320;23.198;2023-08-07T06:42:57;94473.47;;;26.55;47.34
63097;BME280;49185;42.320;23.198;2023-08-07T06:45:22;94475.78;;;26.17;49.01
63097;BME280;49185;42.320;23.198;2023-08-07T06:47:48;94468.91;;;25.60;44.41
63097;BME280;49185;42.320;23.198;2023-08-07T06:50:14;94464.16;;;24.19;48.17
63097;BME280;49185;42.320;23.198;2023-08-07T06:52:39;94470.63;;;24.14;47.99
63097;BME280;49185;42.320;23.198;2023-08-07T06:55:05;94474.66;;;23.59;47.70
63097;BME280;49185;42.320;23.198;2023-08-07T06:57:31;94484.88;;;23.99;48.56
63097;BME280;49185;42.320;23.198;2023-08-07T06:59:56;94488.63;;;24.84;44.82
63097;BME280;49185;42.320;23.198;2023-08-07T07:02:22;94478.28;;;24.49;47.01
63097;BME280;49185;42.320;23.198;2023-08-07T07:04:47;94482.16;;;24.23;46.89
63097;BME280;49185;42.320;23.198;2023-08-07T07:07:13;94476.22;;;23.60;48.26
63097;BME280;49185;42.320;23.198;2023-08-07T07:09:38;94474.13;;;23.90;46.46
63097;BME280;49185;42.320;23.198;2023-08-07T07:12:21;94487.34;;;23.21;48.84
63097;BME280;49185;42.320;23.198;2023-08-07T07:14:47;94498.34;;;23.25;47.63
63097;BME280;49185;42.320;23.198;2023-08-07T07:17:12;94489.34;;;23.58;47.37
63097;BME280;49185;42.320;23.198;2023-08-07T07:19:38;94488.00;;;23.52;49.47
63097;BME280;49185;42.320;23.198;2023-08-07T07:22:03;94486.56;;;23.79;47.63
63097;BME280;49185;42.320;23.198;2023-08-07T07:24:29;94487.38;;;24.04;46.51
63097;BME280;49185;42.320;23.198;2023-08-07T07:26:55;94486.94;;;23.90;44.56
63097;BME280;49185;42.320;23.198;2023-08-07T07:29:20;94481.28;;;24.07;45.95
63097;BME280;49185;42.320;23.198;2023-08-07T07:31:45;94480.22;;;23.75;44.95
63097;BME280;49185;42.320;23.198;2023-08-07T07:34:11;94487.66;;;24.64;46.13
63097;BME280;49185;42.320;23.198;2023-08-07T07:36:36;94478.22;;;23.96;44.83
63097;BME280;49185;42.320;23.198;2023-08-07T07:39:02;94484.00;;;23.95;45.69
63097;BME280;49185;42.320;23.198;2023-08-07T07:41:27;94479.84;;;24.62;43.67
63097;BME280;49185;42.320;23.198;2023-08-07T07:43:53;94476.66;;;25.01;44.76
63097;BME280;49185;42.320;23.198;2023-08-07T07:46:18;94478.50;;;24.97;42.83
63097;BME280;49185;42.320;23.198;2023-08-07T07:48:43;94472.72;;;24.98;41.38
63097;BME280;49185;42.320;23.198;2023-08-07T07:51:09;94476.03;;;24.92;45.09
63097;BME280;49185;42.320;23.198;2023-08-07T07:53:34;94473.06;;;26.01;42.84
63097;BME280;49185;42.320;23.198;2023-08-07T07:56:00;94479.44;;;25.93;42.33
63097;BME280;49185;42.320;23.198;2023-08-07T07:58:25;94479.00;;;25.91;39.68
63097;BME280;49185;42.320;23.198;2023-08-07T08:00:51;94470.81;;;26.23;40.20
63097;BME280;49185;42.320;23.198;2023-08-07T08:03:16;94471.59;;;26.94;41.00
63097;BME280;49185;42.320;23.198;2023-08-07T08:05:42;94459.53;;;27.34;37.13
63097;BME280;49185;42.320;23.198;2023-08-07T08:08:07;94459.25;;;27.00;38.54
63097;BME280;49185;42.320;23.198;2023-08-07T08:10:33;94456.66;;;27.07;39.60
63097;BME280;49185;42.320;23.198;2023-08-07T08:12:58;94452.97;;;27.00;38.90
63097;BME280;49185;42.320;23.198;2023-08-07T08:15:24;94460.81;;;27.01;39.48
63097;BME280;49185;42.320;23.198;2023-08-07T08:17:49;94452.72;;;27.71;37.94
63097;BME280;49185;42.320;23.198;2023-08-07T08:20:14;94448.69;;;28.37;38.09
63097;BME280;49185;42.320;23.198;2023-08-07T08:22:40;94455.72;;;28.35;36.58
63097;BME280;49185;42.320;23.198;2023-08-07T08:25:05;94453.63;;;27.32;36.81
63097;BME280;49185;42.320;23.198;2023-08-07T08:27:31;94447.38;;;27.78;36.76
63097;BME280;49185;42.320;23.198;2023-08-07T08:29:56;94450.72;;;27.25;37.29
63097;BME280;49185;42.320;23.198;2023-08-07T08:32:22;94452.06;;;26.37;38.67
63097;BME280;49185;42.320;23.198;2023-08-07T08:34:47;94449.22;;;25.66;40.56
63097;BME280;49185;42.320;23.198;2023-08-07T08:37:13;94443.41;;;25.84;41.23
63097;BME280;49185;42.320;23.198;2023-08-07T08:39:38;94449.38;;;26.21;40.87
63097;BME280;49185;42.320;23.198;2023-08-07T08:42:04;94434.81;;;26.33;38.04
63097;BME280;49185;42.320;23.198;2023-08-07T08:44:31;94434.50;;;26.93;40.99
63097;BME280;49185;42.320;23.198;2023-08-07T08:46:59;94438.31;;;27.27;41.21
63097;BME280;49185;42.320;23.198;2023-08-07T08:49:32;94426.63;;;27.96;35.54
63097;BME280;49185;42.320;23.198;2023-08-07T08:51:58;94419.44;;;28.41;36.66
63097;BME280;49185;42.320;23.198;2023-08-07T08:54:23;94412.69;;;27.82;37.78
63097;BME280;49185;42.320;23.198;2023-08-07T08:56:50;94407.63;;;27.34;37.03
63097;BME280;49185;42.320;23.198;2023-08-07T08:59:15;94410.81;;;26.97;38.75
63097;BME280;49185;42.320;23.198;2023-08-07T09:01:41;94408.41;;;26.57;38.46
63097;BME280;49185;42.320;23.198;2023-08-07T09:04:07;94401.38;;;26.95;38.36
63097;BME280;49185;42.320;23.198;2023-08-07T09:06:32;94402.34;;;27.25;36.78
63097;BME280;49185;42.320;23.198;2023-08-07T09:08:59;94395.16;;;28.40;36.67
63097;BME280;49185;42.320;23.198;2023-08-07T09:11:25;94398.97;;;28.58;35.08
63097;BME280;49185;42.320;23.198;2023-08-07T09:13:52;94400.25;;;28.11;36.01
63097;BME280;49185;42.320;23.198;2023-08-07T09:16:19;94393.22;;;27.18;36.97
63097;BME280;49185;42.320;23.198;2023-08-07T09:18:44;94389.59;;;27.10;38.80
63097;BME280;49185;42.320;23.198;2023-08-07T09:21:10;94397.09;;;26.74;38.17
63097;BME280;49185;42.320;23.198;2023-08-07T09:23:36;94398.09;;;26.85;37.60
63097;BME280;49185;42.320;23.198;2023-08-07T09:26:04;94398.53;;;26.87;37.88
63097;BME280;49185;42.320;23.198;2023-08-07T09:28:31;94396.34;;;26.58;37.34
63097;BME280;49185;42.320;23.198;2023-08-07T09:30:58;94399.84;;;27.17;38.48
63097;BME280;49185;42.320;23.198;2023-08-07T09:33:28;94401.09;;;27.42;35.67
63097;BME280;49185;42.320;23.198;2023-08-07T09:36:00;94403.75;;;27.62;35.62
63097;BME280;49185;42.320;23.198;2023-08-07T09:38:30;94399.47;;;27.38;37.37
63097;BME280;49185;42.320;23.198;2023-08-07T09:40:59;94402.03;;;27.07;37.16
63097;BME280;49185;42.320;23.198;2023-08-07T09:43:25;94401.56;;;26.27;38.25
63097;BME280;49185;42.320;23.198;2023-08-07T09:45:50;94406.63;;;26.45;38.55
63097;BME280;49185;42.320;23.198;2023-08-07T09:48:23;94402.44;;;27.29;41.19
63097;BME280;49185;42.320;23.198;2023-08-07T09:50:49;94409.00;;;27.05;38.38
63097;BME280;49185;42.320;23.198;2023-08-07T09:53:15;94414.28;;;27.37;37.71
63097;BME280;49185;42.320;23.198;2023-08-07T09:55:41;94403.75;;;26.96;37.74
63097;BME280;49185;42.320;23.198;2023-08-07T09:58:08;94413.88;;;26.57;38.87
63097;BME280;49185;42.320;23.198;2023-08-07T10:00:36;94415.50;;;26.06;39.06
63097;BME280;49185;42.320;23.198;2023-08-07T10:03:02;94407.47;;;26.65;39.03
63097;BME280;49185;42.320;23.198;2023-08-07T10:05:29;94402.69;;;27.01;41.27
63097;BME280;49185;42.320;23.198;2023-08-07T10:07:55;94405.19;;;27.09;36.10
63097;BME280;49185;42.320;23.198;2023-08-07T10:10:21;94403.34;;;26.75;36.33
63097;BME280;49185;42.320;23.198;2023-08-07T10:12:48;94413.88;;;27.15;38.18
63097;BME280;49185;42.320;23.198;2023-08-07T10:15:15;94403.78;;;27.89;40.45
63097;BME280;49185;42.320;23.198;2023-08-07T10:17:41;94393.38;;;27.48;36.92
63097;BME280;49185;42.320;23.198;2023-08-07T10:20:07;94404.16;;;28.10;36.33
63097;BME280;49185;42.320;23.198;2023-08-07T10:22:34;94396.59;;;28.57;36.99
63097;BME280;49185;42.320;23.198;2023-08-07T10:25:03;94391.69;;;28.43;36.50
63097;BME280;49185;42.320;23.198;2023-08-07T10:27:32;94389.13;;;28.27;35.72
63097;BME280;49185;42.320;23.198;2023-08-07T10:30:00;94390.47;;;27.83;38.29
63097;BME280;49185;42.320;23.198;2023-08-07T10:32:27;94393.53;;;28.05;37.36
63097;BME280;49185;42.320;23.198;2023-08-07T10:34:53;94383.75;;;28.34;34.46
63097;BME280;49185;42.320;23.198;2023-08-07T10:37:42;94383.19;;;27.45;35.28
63097;BME280;49185;42.320;23.198;2023-08-07T10:40:09;94379.59;;;27.64;35.95
63097;BME280;49185;42.320;23.198;2023-08-07T10:45:17;94377.69;;;28.48;38.65
63097;BME280;49185;42.320;23.198;2023-08-07T10:47:43;94378.63;;;28.02;34.73
63097;BME280;49185;42.320;23.198;2023-08-07T10:50:09;94367.88;;;28.74;37.49
63097;BME280;49185;42.320;23.198;2023-08-07T10:52:38;94375.59;;;29.02;37.48
63097;BME280;49185;42.320;23.198;2023-08-07T10:55:13;94369.78;;;28.73;35.32
63097;BME280;49185;42.320;23.198;2023-08-07T10:57:39;94366.28;;;28.73;34.26
63097;BME280;49185;42.320;23.198;2023-08-07T11:00:05;94365.47;;;28.69;33.87
63097;BME280;49185;42.320;23.198;2023-08-07T11:02:31;94365.19;;;29.15;38.12
63097;BME280;49185;42.320;23.198;2023-08-07T11:04:57;94362.41;;;29.56;33.80
63097;BME280;49185;42.320;23.198;2023-08-07T11:07:29;94358.59;;;29.23;36.19
63097;BME280;49185;42.320;23.198;2023-08-07T11:09:56;94353.78;;;28.45;35.68
63097;BME280;49185;42.320;23.198;2023-08-07T11:12:28;94343.88;;;28.33;36.37
63097;BME280;49185;42.320;23.198;2023-08-07T11:14:55;94343.25;;;28.47;32.65
63097;BME280;49185;42.320;23.198;2023-08-07T11:17:21;94331.56;;;27.63;34.79
63097;BME280;49185;42.320;23.198;2023-08-07T11:19:49;94320.78;;;27.74;35.82
63097;BME280;49185;42.320;23.198;2023-08-07T11:22:15;94325.94;;;27.79;37.40
63097;BME280;49185;42.320;23.198;2023-08-07T11:24:40;94313.31;;;27.71;37.95
63097;BME280;49185;42.320;23.198;2023-08-07T11:27:07;94320.16;;;28.11;35.25
63097;BME280;49185;42.320;23.198;2023-08-07T11:29:33;94313.50;;;28.12;36.18
63097;BME280;49185;42.320;23.198;2023-08-07T11:31:58;94313.25;;;27.67;35.69
63097;BME280;49185;42.320;23.198;2023-08-07T11:34:25;94321.91;;;28.26;38.13
63097;BME280;49185;42.320;23.198;2023-08-07T11:36:51;94319.81;;;28.46;36.86
63097;BME280;49185;42.320;23.198;2023-08-07T11:39:17;94323.66;;;28.75;34.63
63097;BME280;49185;42.320;23.198;2023-08-07T11:41:42;94323.81;;;28.86;36.19
63097;BME280;49185;42.320;23.198;2023-08-07T11:44:08;94318.13;;;29.50;36.13
63097;BME280;49185;42.320;23.198;2023-08-07T11:46:33;94316.06;;;28.58;35.53
63097;BME280;49185;42.320;23.198;2023-08-07T11:48:59;94313.75;;;28.60;35.43
63097;BME280;49185;42.320;23.198;2023-08-07T11:51:25;94309.06;;;29.46;35.70
63097;BME280;49185;42.320;23.198;2023-08-07T11:53:50;94304.22;;;29.25;33.86
63097;BME280;49185;42.320;23.198;2023-08-07T11:56:16;94309.53;;;29.11;35.86
63097;BME280;49185;42.320;23.198;2023-08-07T11:58:43;94301.09;;;29.75;34.77
63097;BME280;49185;42.320;23.198;2023-08-07T12:01:13;94300.34;;;29.30;34.70
63097;BME280;49185;42.320;23.198;2023-08-07T12:03:42;94300.25;;;29.19;34.83
63097;BME280;49185;42.320;23.198;2023-08-07T12:06:09;94294.19;;;28.99;34.62
63097;BME280;49185;42.320;23.198;2023-08-07T12:08:39;94292.13;;;29.85;32.90
63097;BME280;49185;42.320;23.198;2023-08-07T12:11:11;94281.94;;;28.89;34.18
63097;BME280;49185;42.320;23.198;2023-08-07T12:13:41;94295.56;;;29.71;34.84
63097;BME280;49185;42.320;23.198;2023-08-07T12:16:08;94281.38;;;30.28;33.41
63097;BME280;49185;42.320;23.198;2023-08-07T12:18:34;94280.16;;;30.19;32.60
63097;BME280;49185;42.320;23.198;2023-08-07T12:21:02;94271.41;;;31.19;33.30
63097;BME280;49185;42.320;23.198;2023-08-07T12:23:28;94272.97;;;30.98;31.74
63097;BME280;49185;42.320;23.198;2023-08-07T12:25:53;94278.31;;;30.44;31.99
63097;BME280;49185;42.320;23.198;2023-08-07T12:28:19;94279.19;;;29.82;33.21
63097;BME280;49185;42.320;23.198;2023-08-07T12:30:45;94266.63;;;29.22;35.84
63097;BME280;49185;42.320;23.198;2023-08-07T12:33:11;94271.84;;;29.42;36.58
63097;BME280;49185;42.320;23.198;2023-08-07T12:35:37;94269.34;;;28.77;37.80
63097;BME280;49185;42.320;23.198;2023-08-07T12:38:02;94270.63;;;28.53;37.27
63097;BME280;49185;42.320;23.198;2023-08-07T12:40:28;94269.59;;;28.01;38.65
63097;BME280;49185;42.320;23.198;2023-08-07T12:42:53;94264.09;;;27.71;39.15
63097;BME280;49185;42.320;23.198;2023-08-07T12:48:41;94258.56;;;27.14;42.02
63097;BME280;49185;42.320;23.198;2023-08-07T12:51:06;94261.34;;;27.40;40.05
63097;BME280;49185;42.320;23.198;2023-08-07T12:53:32;94264.00;;;27.14;40.27
63097;BME280;49185;42.320;23.198;2023-08-07T12:55:57;94261.00;;;26.96;40.10
63097;BME280;49185;42.320;23.198;2023-08-07T12:58:22;94258.56;;;26.90;42.72
63097;BME280;49185;42.320;23.198;2023-08-07T13:00:48;94264.63;;;27.03;42.85
63097;BME280;49185;42.320;23.198;2023-08-07T13:03:13;94261.66;;;27.12;42.23
63097;BME280;49185;42.320;23.198;2023-08-07T13:05:39;94257.84;;;26.70;42.11
63097;BME280;49185;42.320;23.198;2023-08-07T13:08:23;94237.25;;;27.00;41.92
63097;BME280;49185;42.320;23.198;2023-08-07T13:10:48;94251.09;;;26.64;41.68
63097;BME280;49185;42.320;23.198;2023-08-07T13:13:14;94246.75;;;26.40;41.78
63097;BME280;49185;42.320;23.198;2023-08-07T13:15:39;94250.84;;;26.30;41.65